createdAt,value
2019-05-23T00:01:09.067Z,3.67
2019-05-23T00:04:06.921Z,3.33
2019-05-23T00:06:58.162Z,3.30
2019-05-23T00:09:47.694Z,3.53
2019-05-23T00:12:38.112Z,3.67
2019-05-23T00:15:26.292Z,3.13
2019-05-23T00:18:00.800Z,3.83
2019-05-23T00:20:32.918Z,3.60
2019-05-23T00:23:04.930Z,3.23
2019-05-23T00:25:36.521Z,3.47
2019-05-23T00:28:09.367Z,3.80
2019-05-23T00:31:01.291Z,3.30
2019-05-23T00:33:35.009Z,2.70
2019-05-23T00:36:31.241Z,3.10
2019-05-23T00:39:07.708Z,2.90
2019-05-23T00:41:41.958Z,3.23
2019-05-23T00:44:14.601Z,2.70
2019-05-23T00:46:50.330Z,2.93
2019-05-23T00:49:28.558Z,5.00
2019-05-23T00:52:00.318Z,3.53
2019-05-23T00:54:35.373Z,3.53
2019-05-23T00:57:09.899Z,4.53
2019-05-23T00:59:41.851Z,3.20
2019-05-23T01:02:14.674Z,3.83
2019-05-23T01:04:45.867Z,4.80
2019-05-23T01:07:19.291Z,3.67
2019-05-23T01:09:50.111Z,2.87
2019-05-23T01:12:24.959Z,3.03
2019-05-23T01:14:57.230Z,3.27
2019-05-23T01:17:31.978Z,3.60
2019-05-23T01:20:05.112Z,2.97
2019-05-23T01:22:41.270Z,3.37
2019-05-23T01:25:14.029Z,4.87
2019-05-23T01:27:47.004Z,2.83
2019-05-23T01:30:25.719Z,2.80
2019-05-23T01:32:57.804Z,3.10
2019-05-23T01:35:31.542Z,3.07
2019-05-23T01:38:05.733Z,4.00
2019-05-23T01:40:41.637Z,4.00
2019-05-23T01:43:14.918Z,5.23
2019-05-23T01:45:46.668Z,3.40
2019-05-23T01:48:19.752Z,5.07
2019-05-23T01:50:52.537Z,3.47
2019-05-23T01:53:28.814Z,3.27
2019-05-23T01:56:00.149Z,2.70
2019-05-23T01:58:38.917Z,4.43
2019-05-23T02:01:11.337Z,3.57
2019-05-23T02:03:48.407Z,4.97
2019-05-23T02:06:20.078Z,2.77
2019-05-23T02:08:54.105Z,3.53
2019-05-23T02:11:24.919Z,4.53
2019-05-23T02:14:07.579Z,3.60
2019-05-23T02:16:43.053Z,3.37
2019-05-23T02:19:18.712Z,3.67
2019-05-23T02:21:50.341Z,3.70
2019-05-23T02:24:28.452Z,3.50
2019-05-23T02:26:58.993Z,2.87
2019-05-23T02:29:30.912Z,3.63
2019-05-23T02:32:02.238Z,3.10
2019-05-23T02:34:34.020Z,3.23
2019-05-23T02:37:06.809Z,3.77
2019-05-23T02:39:51.395Z,4.07
2019-05-23T02:42:37.574Z,3.47
2019-05-23T02:45:18.840Z,2.80
2019-05-23T02:47:52.656Z,3.90
2019-05-23T02:50:29.481Z,3.53
2019-05-23T02:53:01.459Z,3.33
2019-05-23T02:55:38.850Z,3.20
2019-05-23T02:58:25.939Z,3.87
2019-05-23T03:01:30.656Z,2.90
2019-05-23T03:04:12.712Z,2.97
2019-05-23T03:06:48.423Z,3.13
2019-05-23T03:09:19.895Z,3.80
2019-05-23T03:11:56.653Z,3.20
2019-05-23T03:14:27.713Z,3.50
2019-05-23T03:17:08.121Z,2.70
2019-05-23T03:19:54.579Z,3.07
2019-05-23T03:22:36.434Z,3.70
2019-05-23T03:25:19.264Z,5.47
2019-05-23T03:27:53.244Z,3.67
2019-05-23T03:30:32.640Z,3.10
2019-05-23T03:33:06.644Z,3.27
2019-05-23T03:35:43.167Z,2.77
2019-05-23T03:38:16.984Z,3.00
2019-05-23T03:40:48.272Z,4.63
2019-05-23T03:43:21.270Z,3.20
2019-05-23T03:45:58.520Z,3.50
2019-05-23T03:48:29.471Z,3.90
2019-05-23T03:51:03.262Z,4.30
2019-05-23T03:53:41.535Z,3.27
2019-05-23T03:56:13.882Z,3.40
2019-05-23T03:58:47.678Z,3.87
2019-05-23T04:01:23.840Z,3.50
2019-05-23T04:03:59.448Z,4.63
2019-05-23T04:06:33.194Z,3.50
2019-05-23T04:09:11.829Z,4.33
2019-05-23T04:11:45.923Z,4.73
2019-05-23T04:14:19.503Z,4.17
2019-05-23T04:16:56.534Z,4.50
2019-05-23T04:19:27.608Z,3.20
2019-05-23T04:21:58.182Z,3.47
2019-05-23T04:24:37.278Z,4.77
2019-05-23T04:27:11.223Z,4.23
2019-05-23T04:29:42.199Z,4.77
2019-05-23T04:32:15.351Z,4.37
2019-05-23T04:34:47.924Z,3.30
2019-05-23T04:37:18.866Z,5.00
2019-05-23T04:39:49.478Z,5.87
2019-05-23T04:42:19.899Z,5.10
2019-05-23T04:44:55.060Z,7.20
2019-05-23T04:47:29.101Z,10.73
2019-05-23T04:50:05.011Z,11.03
2019-05-23T04:52:36.482Z,7.93
2019-05-23T04:55:08.384Z,8.37
2019-05-23T04:57:42.479Z,6.77
2019-05-23T05:00:15.662Z,7.90
2019-05-23T05:02:47.264Z,7.50
2019-05-23T05:05:19.511Z,8.23
2019-05-23T05:07:54.084Z,6.13
2019-05-23T05:10:29.293Z,6.97
2019-05-23T05:13:05.187Z,8.97
2019-05-23T05:15:36.519Z,8.40
2019-05-23T05:18:10.290Z,7.00
2019-05-23T05:21:30.448Z,7.17
2019-05-23T05:24:01.937Z,8.67
2019-05-23T05:26:34.642Z,7.60
2019-05-23T05:29:08.473Z,7.60
2019-05-23T05:31:39.269Z,8.17
2019-05-23T05:34:14.135Z,6.40
2019-05-23T05:36:47.111Z,8.27
2019-05-23T05:39:22.328Z,8.03
2019-05-23T05:41:53.689Z,6.57
2019-05-23T05:44:27.043Z,9.13
2019-05-23T05:46:58.458Z,7.13
2019-05-23T05:49:31.139Z,7.07
2019-05-23T05:52:03.277Z,6.30
2019-05-23T05:54:34.510Z,6.43
2019-05-23T05:57:05.662Z,8.10
2019-05-23T05:59:38.918Z,8.80
2019-05-23T06:02:13.815Z,6.53
2019-05-23T06:04:44.603Z,7.87
2019-05-23T06:07:33.939Z,9.53
2019-05-23T06:10:11.725Z,6.70
2019-05-23T06:12:48.772Z,6.37
2019-05-23T06:15:23.431Z,10.03
2019-05-23T06:17:54.058Z,7.40
2019-05-23T06:20:24.663Z,8.93
2019-05-23T06:22:57.618Z,8.43
2019-05-23T06:25:31.220Z,8.17
2019-05-23T06:28:04.164Z,7.60
2019-05-23T06:30:37.191Z,9.03
2019-05-23T06:33:22.716Z,6.87
2019-05-23T06:35:41.014Z,7.17
2019-05-23T06:38:14.881Z,7.60
2019-05-23T06:40:48.123Z,6.97
2019-05-23T06:43:23.675Z,7.90
2019-05-23T06:45:58.904Z,9.47
2019-05-23T06:48:31.100Z,12.20
2019-05-23T06:51:01.713Z,8.07
2019-05-23T06:53:34.247Z,8.23
2019-05-23T06:56:14.133Z,9.37
2019-05-23T06:58:47.801Z,10.03
2019-05-23T07:01:21.707Z,11.40
2019-05-23T07:03:54.513Z,12.60
2019-05-23T07:06:26.382Z,8.97
2019-05-23T07:08:56.995Z,8.70
2019-05-23T07:11:30.518Z,8.83
2019-05-23T07:14:04.142Z,9.17
2019-05-23T07:16:34.671Z,8.70
2019-05-23T07:19:05.270Z,10.80
2019-05-23T07:21:41.537Z,6.80
2019-05-23T07:24:12.642Z,10.77
2019-05-23T07:26:43.206Z,9.53
2019-05-23T07:29:13.789Z,8.60
2019-05-23T07:31:44.269Z,8.17
2019-05-23T07:34:16.600Z,11.33
2019-05-23T07:36:50.295Z,10.63
2019-05-23T07:39:22.211Z,8.83
2019-05-23T07:41:53.138Z,10.80
2019-05-23T07:44:24.277Z,10.57
2019-05-23T07:46:55.394Z,11.50
2019-05-23T07:49:26.882Z,9.33
2019-05-23T07:51:57.994Z,12.90
2019-05-23T07:54:46.419Z,7.43
2019-05-23T07:57:19.673Z,9.87
2019-05-23T07:59:51.632Z,8.33
2019-05-23T08:02:37.132Z,9.33
2019-05-23T08:05:14.087Z,10.50
2019-05-23T08:07:46.123Z,8.50
2019-05-23T08:10:32.478Z,7.00
2019-05-23T08:12:50.077Z,10.43
2019-05-23T08:15:22.152Z,10.07
2019-05-23T08:17:54.207Z,6.73
2019-05-23T08:20:26.122Z,10.37
2019-05-23T08:22:57.128Z,8.60
2019-05-23T08:25:29.497Z,10.60
2019-05-23T08:28:09.543Z,12.77
2019-05-23T08:30:42.427Z,7.73
2019-05-23T08:33:16.679Z,10.20
2019-05-23T08:35:47.973Z,8.27
2019-05-23T08:38:19.668Z,12.00
2019-05-23T08:40:51.332Z,9.93
2019-05-23T08:43:23.473Z,9.10
2019-05-23T08:45:58.905Z,11.00
2019-05-23T08:48:30.858Z,9.63
2019-05-23T08:51:02.467Z,9.23
2019-05-23T08:53:34.750Z,7.10
2019-05-23T08:56:17.889Z,8.67
2019-05-23T08:58:38.070Z,7.97
2019-05-23T09:01:11.923Z,8.07
2019-05-23T09:03:42.857Z,8.77
2019-05-23T09:06:17.269Z,8.13
2019-05-23T09:08:53.666Z,7.80
2019-05-23T09:11:24.786Z,8.30
2019-05-23T09:13:58.091Z,7.03
2019-05-23T09:16:33.293Z,7.40
2019-05-23T09:19:06.003Z,6.50
2019-05-23T09:21:37.965Z,9.13
2019-05-23T09:24:10.881Z,8.00
2019-05-23T09:26:41.858Z,13.70
2019-05-23T09:29:13.921Z,7.90
2019-05-23T09:31:47.462Z,9.07
2019-05-23T09:34:20.729Z,8.17
2019-05-23T09:36:51.584Z,12.50
2019-05-23T09:39:23.843Z,7.57
2019-05-23T09:41:55.704Z,6.97
2019-05-23T09:44:26.020Z,6.23
2019-05-23T09:46:56.824Z,9.47
2019-05-23T09:49:27.104Z,8.47
2019-05-23T09:52:01.189Z,7.90
2019-05-23T09:54:30.365Z,9.07
2019-05-23T09:57:02.878Z,5.87
2019-05-23T09:59:36.027Z,7.80
2019-05-23T10:02:10.096Z,7.70
2019-05-23T10:04:40.696Z,7.77
2019-05-23T10:07:11.958Z,6.07
2019-05-23T10:09:42.384Z,6.40
2019-05-23T10:12:13.731Z,6.53
2019-05-23T10:14:44.120Z,6.30
2019-05-23T10:17:17.612Z,7.37
2019-05-23T10:19:47.864Z,7.07
2019-05-23T10:22:22.303Z,7.97
2019-05-23T10:24:56.266Z,8.00
2019-05-23T10:27:30.439Z,7.27
2019-05-23T10:30:00.958Z,8.43
2019-05-23T10:32:32.242Z,6.93
2019-05-23T10:35:04.181Z,8.53
2019-05-23T10:37:35.618Z,8.87
2019-05-23T10:40:07.838Z,6.80
2019-05-23T10:42:46.202Z,8.90
2019-05-23T10:45:21.973Z,9.43
2019-05-23T10:47:59.338Z,8.13
2019-05-23T10:50:44.140Z,9.97
2019-05-23T10:53:06.092Z,9.80
2019-05-23T10:55:36.954Z,9.97
2019-05-23T10:58:11.855Z,9.87
2019-05-23T11:00:47.238Z,9.93
2019-05-23T11:03:18.405Z,13.03
2019-05-23T11:05:49.505Z,13.90
2019-05-23T11:08:28.241Z,10.40
2019-05-23T11:10:55.825Z,9.87
2019-05-23T11:13:27.612Z,12.67
2019-05-23T11:16:03.565Z,11.53
2019-05-23T11:18:34.782Z,11.93
2019-05-23T11:21:08.624Z,16.17
2019-05-23T11:23:43.820Z,9.63
2019-05-23T11:26:17.020Z,10.97
2019-05-23T11:28:49.929Z,10.33
2019-05-23T11:31:22.182Z,10.70
2019-05-23T11:33:53.622Z,10.43
2019-05-23T11:36:34.642Z,10.37
2019-05-23T11:38:58.316Z,10.07
2019-05-23T11:41:31.947Z,12.37
2019-05-23T11:44:04.978Z,9.73
2019-05-23T11:46:36.026Z,9.30
2019-05-23T11:49:07.686Z,9.73
2019-05-23T11:51:38.802Z,10.47
2019-05-23T11:54:10.573Z,11.10
2019-05-23T11:56:42.340Z,11.77
2019-05-23T11:59:13.375Z,10.13
2019-05-23T12:02:01.081Z,10.33
2019-05-23T12:04:43.193Z,8.80
2019-05-23T12:07:45.134Z,10.60
2019-05-23T12:10:22.075Z,10.50
2019-05-23T12:13:01.234Z,9.70
2019-05-23T12:15:36.997Z,12.60
2019-05-23T12:18:10.446Z,10.90
2019-05-23T12:20:41.137Z,13.73
2019-05-23T12:23:13.010Z,10.10
2019-05-23T12:25:44.120Z,12.40
2019-05-23T12:28:16.197Z,10.63
2019-05-23T12:30:47.649Z,9.83
2019-05-23T12:33:20.607Z,11.13
2019-05-23T12:35:51.976Z,10.83
2019-05-23T12:38:22.278Z,10.27
2019-05-23T12:40:53.734Z,10.17
2019-05-23T12:43:24.210Z,10.67
2019-05-23T12:45:55.327Z,13.53
2019-05-23T12:48:37.991Z,13.47
2019-05-23T12:51:11.914Z,9.73
2019-05-23T12:53:46.902Z,10.13
2019-05-23T12:56:18.694Z,8.43
2019-05-23T12:58:49.506Z,9.80
2019-05-23T13:01:20.616Z,10.77
2019-05-23T13:03:51.876Z,10.30
2019-05-23T13:06:29.421Z,9.30
2019-05-23T13:08:59.791Z,10.43
2019-05-23T13:11:30.296Z,11.27
2019-05-23T13:14:02.223Z,9.80
2019-05-23T13:16:33.294Z,12.77
2019-05-23T13:19:03.767Z,9.80
2019-05-23T13:21:34.578Z,13.00
2019-05-23T13:24:05.718Z,8.90
2019-05-23T13:26:38.330Z,11.73
2019-05-23T13:29:09.360Z,10.40
2019-05-23T13:31:45.635Z,12.30
2019-05-23T13:34:16.114Z,9.83
2019-05-23T13:36:47.509Z,9.27
2019-05-23T13:39:18.787Z,10.23
2019-05-23T13:41:49.994Z,10.67
2019-05-23T13:44:33.495Z,11.80
2019-05-23T13:46:55.727Z,12.80
2019-05-23T13:49:28.039Z,10.20
2019-05-23T13:51:59.203Z,10.17
2019-05-23T13:54:29.569Z,11.43
2019-05-23T13:57:01.561Z,11.43
2019-05-23T13:59:34.053Z,10.77
2019-05-23T14:02:08.355Z,11.87
2019-05-23T14:04:39.161Z,11.93
2019-05-23T14:07:12.184Z,11.97
2019-05-23T14:09:42.666Z,10.60
2019-05-23T14:12:22.664Z,12.97
2019-05-23T14:14:47.837Z,9.80
2019-05-23T14:17:24.111Z,11.47
2019-05-23T14:19:55.145Z,10.73
2019-05-23T14:22:26.732Z,13.47
2019-05-23T14:24:57.695Z,11.10
2019-05-23T14:27:34.913Z,10.27
2019-05-23T14:30:14.586Z,10.50
2019-05-23T14:32:52.501Z,11.93
2019-05-23T14:35:27.626Z,11.73
2019-05-23T14:37:59.785Z,12.00
2019-05-23T14:40:31.531Z,13.17
2019-05-23T14:43:10.368Z,14.33
2019-05-23T14:45:46.954Z,13.27
2019-05-23T14:48:35.241Z,12.10
2019-05-23T14:51:21.540Z,16.87
2019-05-23T14:53:55.652Z,15.57
2019-05-23T14:56:28.699Z,14.87
2019-05-23T14:59:00.486Z,12.83
2019-05-23T15:01:33.750Z,14.00
2019-05-23T15:04:06.166Z,15.97
2019-05-23T15:06:38.792Z,15.93
2019-05-23T15:09:10.569Z,15.80
2019-05-23T15:11:42.639Z,13.00
2019-05-23T15:14:16.036Z,17.73
2019-05-23T15:16:47.059Z,14.57
2019-05-23T15:19:38.752Z,15.03
2019-05-23T15:21:50.137Z,13.90
2019-05-23T15:24:22.031Z,14.40
2019-05-23T15:26:55.489Z,18.03
2019-05-23T15:29:29.283Z,16.37
2019-05-23T15:32:02.691Z,18.70
2019-05-23T15:34:34.946Z,13.30
2019-05-23T15:37:04.671Z,16.93
2019-05-23T15:39:36.166Z,13.53
2019-05-23T15:42:09.392Z,11.63
2019-05-23T15:44:40.443Z,14.10
2019-05-23T15:47:14.607Z,14.43
2019-05-23T15:49:47.906Z,15.80
2019-05-23T15:52:43.646Z,14.27
2019-05-23T15:55:32.674Z,13.90
2019-05-23T15:58:14.301Z,14.47
2019-05-23T16:01:13.915Z,12.50
2019-05-23T16:03:56.809Z,13.40
2019-05-23T16:06:33.258Z,11.47
2019-05-23T16:09:07.534Z,12.10
2019-05-23T16:11:39.143Z,13.60
2019-05-23T16:14:10.295Z,10.93
2019-05-23T16:16:42.289Z,11.87
2019-05-23T16:19:15.367Z,11.60
2019-05-23T16:21:46.695Z,11.97
2019-05-23T16:24:18.061Z,12.77
2019-05-23T16:26:48.828Z,10.67
2019-05-23T16:29:24.579Z,10.97
2019-05-23T16:31:56.024Z,12.70
2019-05-23T16:34:32.841Z,10.40
2019-05-23T16:37:03.792Z,14.10
2019-05-23T16:39:46.435Z,10.07
2019-05-23T16:42:11.165Z,9.90
2019-05-23T16:44:45.351Z,11.87
2019-05-23T16:47:19.276Z,11.53
2019-05-23T16:49:51.726Z,10.13
2019-05-23T16:52:22.950Z,11.10
2019-05-23T16:54:56.447Z,11.10
2019-05-23T16:57:44.989Z,12.23
2019-05-23T17:00:38.749Z,10.43
2019-05-23T17:03:34.471Z,10.33
2019-05-23T17:06:39.954Z,10.97
2019-05-23T17:09:31.606Z,10.33
2019-05-23T17:12:38.971Z,10.93
2019-05-23T17:15:26.175Z,9.53
2019-05-23T17:18:20.434Z,10.23
2019-05-23T17:21:02.974Z,9.37
2019-05-23T17:23:44.766Z,9.67
2019-05-23T17:26:40.229Z,11.93
2019-05-23T17:29:19.515Z,10.90
2019-05-23T17:31:51.351Z,9.60
2019-05-23T17:34:22.836Z,9.63
2019-05-23T17:36:53.448Z,9.57
2019-05-23T17:39:25.018Z,8.93
2019-05-23T17:41:55.501Z,10.00
2019-05-23T17:44:27.368Z,10.77
2019-05-23T17:46:57.602Z,8.70
2019-05-23T17:49:28.662Z,10.13
2019-05-23T17:51:58.942Z,9.07
2019-05-23T17:54:31.221Z,10.27
2019-05-23T17:57:02.058Z,9.43
2019-05-23T17:59:35.841Z,9.40
2019-05-23T18:02:07.511Z,8.93
2019-05-23T18:04:39.206Z,10.23
2019-05-23T18:07:11.382Z,9.03
2019-05-23T18:09:43.671Z,10.43
2019-05-23T18:12:15.987Z,9.80
2019-05-23T18:14:46.951Z,9.27
2019-05-23T18:17:17.693Z,8.93
2019-05-23T18:19:49.222Z,9.20
2019-05-23T18:22:21.188Z,10.27
2019-05-23T18:24:53.309Z,8.67
2019-05-23T18:27:26.064Z,8.13
2019-05-23T18:29:58.138Z,9.17
2019-05-23T18:32:29.316Z,9.60
2019-05-23T18:35:04.420Z,7.83
2019-05-23T18:37:35.652Z,8.07
2019-05-23T18:40:10.564Z,9.63
2019-05-23T18:42:44.662Z,10.47
2019-05-23T18:45:21.011Z,9.77
2019-05-23T18:47:52.120Z,9.90
2019-05-23T18:50:25.517Z,8.77
2019-05-23T18:52:56.692Z,8.57
2019-05-23T18:55:29.273Z,7.60
2019-05-23T18:58:01.141Z,8.37
2019-05-23T19:01:10.935Z,8.40
2019-05-23T19:03:44.957Z,9.20
2019-05-23T19:06:16.289Z,8.37
2019-05-23T19:08:50.124Z,7.80
2019-05-23T19:11:27.740Z,8.93
2019-05-23T19:14:00.353Z,8.60
2019-05-23T19:16:35.172Z,8.10
2019-05-23T19:19:07.441Z,8.80
2019-05-23T19:21:39.721Z,7.37
2019-05-23T19:24:11.027Z,8.93
2019-05-23T19:26:44.262Z,7.33
2019-05-23T19:29:17.083Z,8.23
2019-05-23T19:31:48.427Z,7.77
2019-05-23T19:34:20.386Z,8.00
2019-05-23T19:36:52.546Z,7.80
2019-05-23T19:39:24.899Z,8.30
2019-05-23T19:41:59.127Z,7.83
2019-05-23T19:44:31.005Z,7.57
2019-05-23T19:47:04.505Z,8.73
2019-05-23T19:49:39.008Z,7.93
2019-05-23T19:52:10.496Z,8.47
2019-05-23T19:54:41.476Z,8.73
2019-05-23T19:57:13.217Z,8.17
2019-05-23T19:59:44.281Z,10.07
2019-05-23T20:02:37.568Z,8.30
2019-05-23T20:05:16.878Z,7.90
2019-05-23T20:07:48.091Z,7.70
2019-05-23T20:10:22.344Z,8.60
2019-05-23T20:12:54.796Z,7.83
2019-05-23T20:15:25.625Z,7.63
2019-05-23T20:17:57.208Z,8.40
2019-05-23T20:20:32.329Z,9.60
2019-05-23T20:23:04.180Z,9.27
2019-05-23T20:25:36.405Z,9.40
2019-05-23T20:28:09.818Z,10.87
2019-05-23T20:30:59.475Z,9.70
2019-05-23T20:33:31.144Z,9.30
2019-05-23T20:36:12.485Z,10.43
2019-05-23T20:38:43.146Z,10.67
2019-05-23T20:41:15.831Z,7.77
2019-05-23T20:43:47.011Z,11.20
2019-05-23T20:46:17.609Z,10.47
2019-05-23T20:48:50.148Z,9.17
2019-05-23T20:51:24.901Z,10.13
2019-05-23T20:53:59.553Z,9.40
2019-05-23T20:56:31.240Z,9.17
2019-05-23T20:59:08.591Z,10.03
2019-05-23T21:01:41.503Z,12.43
2019-05-23T21:04:14.030Z,11.60
2019-05-23T21:06:48.018Z,12.40
2019-05-23T21:09:23.516Z,9.63
2019-05-23T21:11:55.049Z,11.73
2019-05-23T21:14:29.186Z,11.07
2019-05-23T21:17:00.140Z,13.47
2019-05-23T21:19:31.069Z,10.77
2019-05-23T21:22:01.760Z,11.87
2019-05-23T21:24:33.749Z,12.00
2019-05-23T21:27:04.503Z,11.47
2019-05-23T21:29:35.611Z,11.63
2019-05-23T21:32:06.045Z,10.90
2019-05-23T21:34:37.196Z,12.83
2019-05-23T21:37:07.689Z,12.07
2019-05-23T21:39:38.662Z,15.10
2019-05-23T21:42:10.459Z,12.33
2019-05-23T21:44:41.158Z,12.03
2019-05-23T21:47:12.237Z,13.63
2019-05-23T21:49:44.855Z,13.13
2019-05-23T21:52:15.301Z,12.27
2019-05-23T21:54:48.280Z,11.17
2019-05-23T21:57:19.534Z,10.23
2019-05-23T21:59:50.366Z,11.10
2019-05-23T22:02:30.512Z,11.20
2019-05-23T22:05:14.706Z,17.57
2019-05-23T22:07:56.475Z,9.77
2019-05-23T22:10:32.220Z,11.90
2019-05-23T22:13:05.243Z,9.13
2019-05-23T22:15:37.925Z,12.73
2019-05-23T22:18:08.743Z,11.90
2019-05-23T22:20:40.709Z,10.30
2019-05-23T22:23:12.030Z,9.50
2019-05-23T22:25:44.915Z,9.53
2019-05-23T22:28:17.314Z,8.17
2019-05-23T22:30:49.527Z,9.80
2019-05-23T22:33:25.095Z,9.57
2019-05-23T22:35:59.659Z,9.73
2019-05-23T22:38:32.716Z,11.57
2019-05-23T22:41:03.067Z,9.77
2019-05-23T22:43:33.963Z,11.77
2019-05-23T22:46:06.083Z,9.13
2019-05-23T22:48:36.588Z,13.00
2019-05-23T22:51:07.101Z,9.07
2019-05-23T22:53:38.735Z,9.10
2019-05-23T22:56:09.970Z,8.47
2019-05-23T22:58:41.768Z,8.67
2019-05-23T23:01:17.039Z,8.43
2019-05-23T23:03:55.373Z,8.50
2019-05-23T23:06:29.003Z,7.77
2019-05-23T23:09:00.150Z,9.13
2019-05-23T23:11:32.518Z,9.43
2019-05-23T23:14:10.279Z,10.33
2019-05-23T23:16:40.801Z,8.00
2019-05-23T23:19:11.947Z,9.50
2019-05-23T23:21:45.780Z,8.47
2019-05-23T23:24:20.376Z,9.10
2019-05-23T23:26:52.989Z,9.20
2019-05-23T23:29:25.585Z,8.00
2019-05-23T23:32:03.648Z,9.90
2019-05-23T23:34:33.160Z,8.60
2019-05-23T23:37:04.059Z,7.50
2019-05-23T23:39:37.550Z,7.13
2019-05-23T23:42:08.810Z,7.70
2019-05-23T23:44:46.495Z,7.43
2019-05-23T23:47:35.318Z,8.30
2019-05-23T23:50:23.823Z,7.67
2019-05-23T23:53:12.630Z,6.77
2019-05-23T23:56:00.983Z,8.23
2019-05-23T23:58:31.524Z,6.93
